Time;durP1;ratioP1;P1;durP2;ratioP2;P2;SDS_P1;SDS_P2;PMS_P1;PMS_P2;Temp;Humidity;BMP_temperature;BMP_pressure;BME280_temperature;BME280_humidity;BME280_pressure;Samples;Min_cycle;Max_cycle;Signal;HPM_P1;HPM_P2
2022/06/04 05:09:58;;;;;;;12.10;6.50;;;11.20;99.90;;;;;;5002722;24;20037;31
2022/06/04 05:12:23;;;;;;;15.93;7.33;;;11.30;99.90;;;;;;4733101;23;20077;-79
2022/06/04 05:17:20;;;;;;;8.82;6.88;;;11.40;99.90;;;;;;4978064;23;20413;-78
2022/06/04 05:19:46;;;;;;;11.83;7.07;;;11.40;99.90;;;;;;4841926;29;20044;-79
2022/06/04 05:22:12;;;;;;;10.63;6.37;;;11.50;99.90;;;;;;4881409;29;20052;-79
2022/06/04 05:24:38;;;;;;;10.47;6.57;;;11.60;99.90;;;;;;4850518;29;20044;-80
2022/06/04 05:27:05;;;;;;;10.53;6.63;;;11.60;99.90;;;;;;4851682;29;20238;-79
2022/06/04 05:29:33;;;;;;;11.33;6.33;;;11.80;99.90;;;;;;4879506;29;20040;-82
2022/06/04 05:31:59;;;;;;;9.87;6.20;;;11.90;99.90;;;;;;4881267;29;20044;-81
2022/06/04 05:34:25;;;;;;;8.77;5.93;;;11.90;99.90;;;;;;4865403;29;20105;-80
2022/06/04 05:36:53;;;;;;;9.40;5.73;;;12.00;99.90;;;;;;4900417;29;20088;-81
2022/06/04 05:39:19;;;;;;;9.80;5.57;;;12.10;99.90;;;;;;4870925;29;20044;-81
2022/06/04 05:41:46;;;;;;;7.93;5.77;;;12.20;99.90;;;;;;4844418;29;20040;-81
2022/06/04 05:44:12;;;;;;;9.80;6.50;;;12.20;99.90;;;;;;4849815;29;20045;-80
2022/06/04 05:46:42;;;;;;;11.13;5.93;;;12.30;99.90;;;;;;4889520;29;20123;-79
2022/06/04 05:49:09;;;;;;;12.37;6.23;;;12.30;99.90;;;;;;4895182;29;20517;-80
2022/06/04 05:51:35;;;;;;;7.80;5.80;;;12.40;99.90;;;;;;4867867;29;20055;-79
2022/06/04 05:54:01;;;;;;;7.17;5.50;;;12.50;99.90;;;;;;4877702;29;20044;-80
2022/06/04 05:56:30;;;;;;;8.97;5.60;;;12.50;99.90;;;;;;4895027;29;20036;-80
2022/06/04 05:59:01;;;;;;;10.00;5.20;;;12.70;99.90;;;;;;4891894;29;20032;-81
2022/06/04 06:01:28;;;;;;;9.30;5.77;;;12.70;99.90;;;;;;4883567;29;20053;-82
2022/06/04 06:03:55;;;;;;;8.77;5.30;;;12.80;99.90;;;;;;4871880;29;20049;-80
2022/06/04 06:06:24;;;;;;;9.70;6.10;;;12.90;99.90;;;;;;4853197;29;20466;-79
2022/06/04 06:08:51;;;;;;;9.57;4.90;;;13.00;99.90;;;;;;4888561;29;20044;-81
2022/06/04 06:11:18;;;;;;;10.03;5.63;;;13.10;99.90;;;;;;4897845;29;20048;-81
2022/06/04 06:13:45;;;;;;;10.70;5.57;;;13.20;99.90;;;;;;4877163;29;20051;-80
2022/06/04 06:16:13;;;;;;;8.83;4.97;;;13.30;99.90;;;;;;4881988;29;20056;-81
2022/06/04 06:18:39;;;;;;;6.93;6.00;;;13.30;99.90;;;;;;4849508;29;20064;-81
2022/06/04 06:21:06;;;;;;;8.13;5.47;;;13.30;99.90;;;;;;4847311;29;20072;-79
2022/06/04 06:23:32;;;;;;;7.53;5.30;;;13.30;99.90;;;;;;4854952;29;20103;-82
2022/06/04 06:25:58;;;;;;;8.20;4.90;;;13.30;99.90;;;;;;4879341;29;20498;-81
2022/06/04 06:28:24;;;;;;;7.10;5.10;;;13.20;99.90;;;;;;4871915;29;20049;-81
2022/06/04 06:30:51;;;;;;;9.70;5.27;;;13.30;99.90;;;;;;4852582;29;20119;-80
2022/06/04 06:33:17;;;;;;;7.13;4.90;;;13.40;99.90;;;;;;4883102;29;20044;-82
2022/06/04 06:35:42;;;;;;;7.27;5.30;;;13.50;99.90;;;;;;4869227;29;20101;-81
2022/06/04 06:38:08;;;;;;;8.00;5.50;;;13.70;99.90;;;;;;4850243;29;20880;-81
2022/06/04 06:40:35;;;;;;;7.93;5.30;;;13.70;99.90;;;;;;4875695;29;20127;-81
2022/06/04 06:43:01;;;;;;;7.53;5.17;;;13.80;99.90;;;;;;4863719;29;20061;-81
2022/06/04 06:45:27;;;;;;;8.83;5.57;;;13.90;99.90;;;;;;4854186;29;20438;-81
2022/06/04 06:47:53;;;;;;;7.93;4.90;;;14.00;99.90;;;;;;4857469;29;20044;-80
2022/06/04 06:50:18;;;;;;;10.50;6.00;;;14.10;99.90;;;;;;4853193;29;20072;-82
2022/06/04 06:52:44;;;;;;;6.70;5.30;;;14.10;99.90;;;;;;4845623;29;20056;-80
2022/06/04 06:55:10;;;;;;;10.63;5.37;;;14.20;99.90;;;;;;4851238;29;20045;-80
2022/06/04 06:57:36;;;;;;;7.10;5.03;;;14.20;99.90;;;;;;4845509;29;20047;-81
2022/06/04 07:00:04;;;;;;;8.67;5.07;;;14.30;99.90;;;;;;4850811;29;20489;-81
2022/06/04 07:02:29;;;;;;;9.33;5.27;;;14.40;99.90;;;;;;4861788;29;20049;-82
2022/06/04 07:04:55;;;;;;;7.60;6.00;;;14.40;99.90;;;;;;4847153;29;20041;-81
2022/06/04 07:07:21;;;;;;;9.10;5.87;;;14.50;99.90;;;;;;4842600;29;20055;-82
2022/06/04 07:09:46;;;;;;;7.93;4.73;;;14.50;99.90;;;;;;4847685;29;20120;-80
2022/06/04 07:12:12;;;;;;;8.77;5.70;;;14.50;99.90;;;;;;4869833;29;20437;-81
2022/06/04 07:14:38;;;;;;;7.07;5.23;;;14.60;99.90;;;;;;4858444;29;20045;-80
2022/06/04 07:17:05;;;;;;;8.93;5.93;;;14.70;99.90;;;;;;4872801;29;20057;-81
2022/06/04 07:19:31;;;;;;;7.63;5.13;;;14.90;99.90;;;;;;4872096;29;20071;-81
2022/06/04 07:21:57;;;;;;;7.17;5.20;;;14.90;99.90;;;;;;4848636;29;20045;-82
2022/06/04 07:24:30;;;;;;;10.57;5.97;;;15.00;99.90;;;;;;4861573;29;20048;-82
2022/06/04 07:26:57;;;;;;;8.73;5.60;;;15.00;99.90;;;;;;4838217;29;20033;-82
2022/06/04 07:29:23;;;;;;;9.00;5.90;;;15.00;99.90;;;;;;4847275;29;20044;-79
2022/06/04 07:31:52;;;;;;;7.93;5.77;;;15.10;99.90;;;;;;4882739;29;20115;-81
2022/06/04 07:34:18;;;;;;;11.23;6.50;;;15.20;99.90;;;;;;4851746;29;20115;-81
2022/06/04 07:36:45;;;;;;;7.13;5.03;;;15.10;99.90;;;;;;4853070;29;20417;-82
2022/06/04 07:39:14;;;;;;;7.70;5.23;;;15.10;99.90;;;;;;4859684;29;20044;-82
2022/06/04 07:41:43;;;;;;;8.67;6.03;;;15.20;99.90;;;;;;4864034;29;20575;-83
2022/06/04 07:44:11;;;;;;;9.10;6.30;;;15.20;99.90;;;;;;4867365;29;20151;-83
2022/06/04 07:46:37;;;;;;;8.40;5.18;;;15.20;99.90;;;;;;4856157;29;20052;-83
2022/06/04 07:49:05;;;;;;;9.90;5.33;;;15.30;99.90;;;;;;4842797;29;20127;-83
2022/06/04 07:51:35;;;;;;;11.55;6.07;;;15.60;99.90;;;;;;4843171;29;20120;-82
2022/06/04 07:54:01;;;;;;;7.77;5.97;;;15.80;99.90;;;;;;4854877;29;20051;-80
2022/06/04 07:56:28;;;;;;;5.90;5.20;;;16.00;99.90;;;;;;4870263;29;20101;-80
2022/06/04 07:58:53;;;;;;;8.02;5.70;;;15.90;99.90;;;;;;4829428;29;20121;-83
2022/06/04 08:01:22;;;;;;;6.80;5.57;;;15.90;99.90;;;;;;4840026;29;20044;-82
2022/06/04 08:03:49;;;;;;;7.60;5.20;;;15.90;99.90;;;;;;4862956;29;20403;-82
2022/06/04 08:06:17;;;;;;;7.15;5.38;;;15.90;99.90;;;;;;4861135;29;20079;-82
2022/06/04 08:08:44;;;;;;;10.20;5.38;;;15.80;99.90;;;;;;4864270;29;20044;-82
2022/06/04 08:13:54;;;;;;;8.30;5.30;;;15.70;99.90;;;;;;4859183;29;20467;-81
2022/06/04 08:16:20;;;;;;;9.63;5.18;;;15.60;99.90;;;;;;4840520;29;20044;-81
2022/06/04 08:18:46;;;;;;;9.45;5.45;;;15.60;99.90;;;;;;4869318;29;20052;-81
2022/06/04 08:21:13;;;;;;;8.07;5.47;;;15.60;99.90;;;;;;4863272;29;20483;-82
2022/06/04 08:23:39;;;;;;;7.05;5.85;;;15.80;99.90;;;;;;4839521;29;20049;-82
2022/06/04 08:26:08;;;;;;;8.50;5.50;;;15.80;99.90;;;;;;4828583;29;20033;-83
2022/06/04 08:28:34;;;;;;;8.43;5.82;;;16.00;99.90;;;;;;4851644;29;20048;-83
2022/06/04 08:31:03;;;;;;;8.23;5.53;;;16.30;99.90;;;;;;4838830;29;20096;-83
2022/06/04 08:33:29;;;;;;;8.55;5.68;;;16.40;99.90;;;;;;4851063;29;20461;-83
2022/06/04 08:35:55;;;;;;;10.48;5.40;;;16.60;99.90;;;;;;4855824;29;20041;-83
2022/06/04 08:38:21;;;;;;;8.60;6.30;;;16.50;99.90;;;;;;4864306;29;20060;-82
2022/06/04 08:40:55;;;;;;;9.52;5.75;;;16.50;99.90;;;;;;4876643;29;20061;-81
2022/06/04 08:43:46;;;;;;;10.45;5.13;;;16.70;99.90;;;;;;4875212;29;20088;-82
2022/06/04 08:46:20;;;;;;;6.68;5.88;;;16.90;99.90;;;;;;4848336;29;20081;-82
2022/06/04 08:48:47;;;;;;;9.27;6.15;;;16.90;99.90;;;;;;4834523;29;20132;-84
2022/06/04 08:51:26;;;;;;;10.07;5.85;;;17.00;99.90;;;;;;4846894;29;20391;-82
2022/06/04 08:53:55;;;;;;;7.68;5.93;;;17.00;99.90;;;;;;4859974;29;20048;-83
2022/06/04 08:59:23;;;;;;;11.63;5.93;;;16.90;99.90;;;;;;4848075;29;20084;-83
2022/06/04 09:01:58;;;;;;;7.55;5.07;;;17.00;99.90;;;;;;4846954;29;20430;-83
2022/06/04 09:05:01;;;;;;;8.38;5.55;;;17.10;99.90;;;;;;4846016;29;20052;-82
2022/06/04 09:07:37;;;;;;;7.57;4.80;;;17.20;99.90;;;;;;4853409;29;20124;-82
2022/06/04 09:10:19;;;;;;;8.23;5.38;;;17.40;99.90;;;;;;4846552;29;20045;-82
2022/06/04 09:12:50;;;;;;;7.85;5.50;;;17.50;99.90;;;;;;4857231;29;20128;-82
2022/06/04 09:15:21;;;;;;;6.22;5.05;;;17.40;99.90;;;;;;4880037;29;20048;-82
2022/06/04 09:17:54;;;;;;;11.45;5.53;;;17.50;99.90;;;;;;4829626;29;20061;-82
2022/06/04 09:20:27;;;;;;;6.07;5.32;;;17.50;99.90;;;;;;4829106;29;20054;-81
2022/06/04 09:23:00;;;;;;;6.78;5.10;;;17.70;99.90;;;;;;4861808;29;20064;-82
2022/06/04 09:25:33;;;;;;;5.78;4.80;;;17.70;99.90;;;;;;4872100;29;20053;-83
2022/06/04 09:28:06;;;;;;;7.63;5.40;;;17.60;99.90;;;;;;4830667;29;20041;-82
2022/06/04 09:30:40;;;;;;;9.60;5.80;;;17.80;99.90;;;;;;4860817;29;20482;-84
2022/06/04 09:33:30;;;;;;;7.93;5.20;;;17.90;99.90;;;;;;4865183;29;20044;-83
2022/06/04 09:35:57;;;;;;;7.57;5.05;;;17.90;99.90;;;;;;4864296;29;20041;-82
2022/06/04 09:38:29;;;;;;;6.80;4.95;;;17.90;99.90;;;;;;4835835;29;20086;-83
2022/06/04 09:41:18;;;;;;;7.68;5.00;;;17.90;99.90;;;;;;4858188;29;20059;-81
2022/06/04 09:43:58;;;;;;;7.07;5.00;;;18.10;99.90;;;;;;4880478;29;20075;-82
2022/06/04 09:46:25;;;;;;;8.02;5.15;;;18.30;99.90;;;;;;4864965;29;20040;-80
2022/06/04 09:48:52;;;;;;;6.32;4.50;;;18.70;99.90;;;;;;4873470;29;20051;-83
2022/06/04 09:51:22;;;;;;;8.23;5.10;;;18.70;99.90;;;;;;4857069;29;20068;-82
2022/06/04 09:53:54;;;;;;;9.02;5.10;;;18.70;99.90;;;;;;4862131;29;20127;-81
2022/06/04 09:56:40;;;;;;;5.15;4.65;;;18.70;99.90;;;;;;4855347;29;20147;-82
2022/06/04 09:59:20;;;;;;;7.13;4.78;;;18.80;99.90;;;;;;4849100;29;20083;-83
2022/06/04 10:01:53;;;;;;;7.88;5.20;;;18.70;99.90;;;;;;4876638;29;20719;-82
2022/06/04 10:04:19;;;;;;;9.15;5.10;;;18.70;99.90;;;;;;4857485;29;20451;-82
2022/06/04 10:06:45;;;;;;;6.05;4.03;;;18.80;99.90;;;;;;4849902;29;20402;-82
2022/06/04 10:12:02;;;;;;;6.70;4.10;;;18.80;99.90;;;;;;4873434;29;20056;-81
2022/06/04 10:14:39;;;;;;;5.88;3.72;;;18.80;99.90;;;;;;4864390;29;20076;-82
2022/06/04 10:17:27;;;;;;;8.18;4.60;;;18.80;99.90;;;;;;4870447;29;20570;-83
2022/06/04 10:19:54;;;;;;;5.57;4.30;;;19.00;99.90;;;;;;4856951;29;20063;-84
2022/06/04 10:22:21;;;;;;;6.63;4.30;;;19.20;99.90;;;;;;4852131;29;20575;-83
2022/06/04 10:24:56;;;;;;;7.07;4.28;;;19.50;99.90;;;;;;4860591;29;20101;-83
2022/06/04 10:27:40;;;;;;;7.47;4.55;;;19.70;99.90;;;;;;4843992;29;20053;-83
2022/06/04 10:30:24;;;;;;;7.38;4.70;;;20.00;99.90;;;;;;4886844;29;20048;-82
2022/06/04 10:32:52;;;;;;;6.88;4.57;;;20.10;99.90;;;;;;4864228;29;20462;-84
2022/06/04 10:35:42;;;;;;;7.60;4.95;;;20.20;99.90;;;;;;4849337;29;20113;-81
2022/06/04 10:38:32;;;;;;;4.50;4.00;;;19.90;99.90;;;;;;4846180;29;20137;-83
2022/06/04 10:41:13;;;;;;;6.95;4.55;;;19.70;99.90;;;;;;4846424;29;20053;-82
2022/06/04 10:44:09;;;;;;;5.20;4.00;;;19.80;99.90;;;;;;4862294;29;20059;-82
2022/06/04 10:46:58;;;;;;;7.20;4.13;;;19.90;99.90;;;;;;4843721;29;20097;-85
2022/06/04 10:49:46;;;;;;;4.05;3.50;;;19.90;99.90;;;;;;4843572;29;20099;-82
2022/06/04 10:52:29;;;;;;;4.35;3.80;;;20.00;99.90;;;;;;4871257;29;20386;-82
2022/06/04 10:55:27;;;;;;;4.60;4.00;;;19.90;99.90;;;;;;4873958;29;20048;-83
2022/06/04 10:58:40;;;;;;;5.63;4.20;;;19.90;99.90;;;;;;4878682;29;20041;-82
2022/06/04 11:01:10;;;;;;;4.28;3.60;;;20.00;99.90;;;;;;4852097;29;20052;-84
2022/06/04 11:04:02;;;;;;;4.75;3.88;;;19.80;99.90;;;;;;4883221;29;20037;-84
2022/06/04 11:06:31;;;;;;;4.00;3.45;;;19.70;99.90;;;;;;4850124;29;20045;-83
2022/06/04 11:09:10;;;;;;;5.00;3.95;;;19.90;99.90;;;;;;4864017;29;20553;-81
2022/06/04 11:11:45;;;;;;;6.70;3.78;;;20.00;99.90;;;;;;4850321;29;20037;-82
2022/06/04 11:14:16;;;;;;;6.45;3.80;;;20.30;99.90;;;;;;4848999;29;20041;-85
2022/06/04 11:16:55;;;;;;;5.57;3.30;;;20.40;99.90;;;;;;4854745;29;20037;-82
2022/06/04 11:19:31;;;;;;;5.88;3.55;;;20.50;99.90;;;;;;4873162;29;20052;-84
2022/06/04 11:22:18;;;;;;;5.32;3.78;;;20.60;99.90;;;;;;4854122;29;20041;-83
2022/06/04 11:24:49;;;;;;;6.82;4.28;;;20.60;99.90;;;;;;4842459;29;20495;-83
2022/06/04 11:27:24;;;;;;;4.73;4.30;;;20.40;99.90;;;;;;4874050;29;20045;-83
2022/06/04 11:29:51;;;;;;;5.78;3.60;;;20.60;99.90;;;;;;4857282;29;20059;-85
2022/06/04 11:32:41;;;;;;;5.90;4.35;;;20.80;99.90;;;;;;4866366;29;20040;-83
2022/06/04 11:35:31;;;;;;;7.18;4.10;;;20.90;99.90;;;;;;4850211;29;20041;-82
2022/06/04 11:38:13;;;;;;;4.82;4.05;;;21.00;99.90;;;;;;4850977;29;20364;-83
2022/06/04 11:41:04;;;;;;;7.25;4.50;;;21.00;99.90;;;;;;4865680;29;20104;-83
2022/06/04 11:43:58;;;;;;;5.75;4.07;;;20.60;99.90;;;;;;4871327;29;20048;-83
2022/06/04 11:46:46;;;;;;;6.55;4.50;;;20.10;99.90;;;;;;4864101;29;20041;-84
2022/06/04 11:49:33;;;;;;;5.55;4.50;;;20.00;99.90;;;;;;4863860;29;20037;-81
2022/06/04 11:52:15;;;;;;;7.55;3.63;;;19.90;99.90;;;;;;4864678;29;20063;-82
2022/06/04 11:54:52;;;;;;;4.72;3.97;;;20.10;99.90;;;;;;4874594;29;20076;-82
2022/06/04 11:57:31;;;;;;;4.35;3.70;;;20.10;99.90;;;;;;4868125;29;20051;-84
2022/06/04 12:00:21;;;;;;;7.13;4.20;;;20.30;99.90;;;;;;4851338;29;20037;-82
2022/06/04 12:03:02;;;;;;;7.95;3.83;;;20.20;99.90;;;;;;4849982;29;20048;-83
2022/06/04 12:05:38;;;;;;;4.43;3.70;;;20.30;99.90;;;;;;4846761;29;20045;-84
2022/06/04 12:08:11;;;;;;;7.10;3.72;;;20.30;99.90;;;;;;4852401;29;20133;-82
2022/06/04 12:10:46;;;;;;;6.00;3.72;;;20.20;99.90;;;;;;4843678;29;20395;-83
2022/06/04 12:13:25;;;;;;;5.82;3.88;;;20.40;99.90;;;;;;4839881;29;20048;-84
2022/06/04 12:16:04;;;;;;;4.72;3.30;;;20.50;99.90;;;;;;4863846;29;20052;-83
2022/06/04 12:18:41;;;;;;;4.47;3.15;;;20.50;99.90;;;;;;4873041;29;20171;-84
2022/06/04 12:24:38;;;;;;;3.83;3.40;;;20.90;99.90;;;;;;4856934;29;20051;-83
2022/06/04 12:27:17;;;;;;;6.05;3.42;;;20.60;99.90;;;;;;4861611;29;20049;-85
2022/06/04 12:29:49;;;;;;;5.32;3.17;;;20.50;99.90;;;;;;4878266;29;20045;-83
2022/06/04 12:32:21;;;;;;;;;;;20.40;99.90;;;;;;4858738;29;20084;-83
2022/06/04 12:34:50;;;;;;;5.57;3.80;;;20.20;99.90;;;;;;4879901;29;19920;-82
2022/06/04 12:37:27;;;;;;;5.47;3.90;;;20.10;99.90;;;;;;4845132;29;20411;-81
2022/06/04 12:39:53;;;;;;;4.53;3.40;;;20.20;99.90;;;;;;4835246;29;20041;-83
2022/06/04 12:42:19;;;;;;;6.57;4.03;;;20.20;99.90;;;;;;4843950;29;20086;-83
2022/06/04 12:45:00;;;;;;;3.40;3.10;;;20.30;99.90;;;;;;4848401;29;20047;-83
2022/06/04 12:52:40;;;;;;;5.40;3.60;;;20.80;99.90;;;;;;4870148;29;20056;-82
2022/06/04 12:58:50;;;;;;;5.00;3.70;;;20.90;99.90;;;;;;4878838;29;20124;-83
2022/06/04 13:01:16;;;;;;;6.88;3.72;;;20.90;99.90;;;;;;4857381;29;20085;-83
2022/06/04 13:03:43;;;;;;;7.68;3.85;;;20.80;99.90;;;;;;4847090;29;20087;-82
2022/06/04 13:06:12;;;;;;;6.05;4.05;;;21.00;99.90;;;;;;4843532;29;20137;-82
2022/06/04 13:09:04;;;;;;;4.13;3.50;;;21.20;99.90;;;;;;4865175;29;20067;-81
2022/06/04 13:11:43;;;;;;;5.82;3.92;;;21.50;99.90;;;;;;4849776;29;20045;-83
2022/06/04 13:14:23;;;;;;;5.38;3.47;;;21.30;99.90;;;;;;4856407;29;20094;-83
2022/06/04 13:16:56;;;;;;;6.35;3.67;;;21.20;99.90;;;;;;4838636;29;20494;-83
2022/06/04 13:19:55;;;;;;;4.63;3.63;;;21.10;99.90;;;;;;4846313;29;20669;-83
2022/06/04 13:22:31;;;;;;;5.30;3.47;;;21.00;99.90;;;;;;4855026;29;20135;-84
2022/06/04 13:25:00;;;;;;;5.15;3.45;;;21.10;99.90;;;;;;4849063;29;20104;-82
2022/06/04 13:27:51;;;;;;;5.30;3.50;;;21.10;99.90;;;;;;4846715;29;20037;-83
2022/06/04 13:30:29;;;;;;;5.57;3.45;;;21.30;99.90;;;;;;4843607;29;20102;-82
2022/06/04 13:33:11;;;;;;;4.10;3.47;;;21.00;99.90;;;;;;4841979;29;20668;-81
2022/06/04 13:35:52;;;;;;;5.60;4.00;;;20.80;99.90;;;;;;4855493;29;20044;-82
2022/06/04 13:38:39;;;;;;;5.03;3.83;;;20.60;99.90;;;;;;4875236;29;20060;-81
2022/06/04 13:41:16;;;;;;;4.53;3.40;;;20.80;99.90;;;;;;4846434;29;20044;-81
2022/06/04 13:43:47;;;;;;;4.50;3.40;;;21.10;99.90;;;;;;4868532;29;20032;-81
2022/06/04 13:46:24;;;;;;;5.45;3.28;;;21.50;99.90;;;;;;4858202;29;20125;-81
2022/06/04 13:48:56;;;;;;;4.43;3.38;;;21.60;99.90;;;;;;4845319;29;20076;-82
2022/06/04 13:51:25;;;;;;;3.38;3.08;;;21.50;99.90;;;;;;4864143;29;20215;-83
2022/06/04 13:53:54;;;;;;;3.97;3.50;;;21.20;99.90;;;;;;4850056;29;20484;-80
2022/06/04 13:56:40;;;;;;;4.00;3.55;;;21.10;99.90;;;;;;4857031;29;20036;-81
2022/06/04 13:59:16;;;;;;;4.65;3.70;;;21.20;99.90;;;;;;4854222;29;20055;-83
2022/06/04 14:01:43;;;;;;;5.70;4.18;;;21.30;99.90;;;;;;4889948;29;20049;-82
2022/06/04 14:07:14;;;;;;;4.97;3.60;;;21.00;99.90;;;;;;4839404;29;20511;-82
2022/06/04 14:09:50;;;;;;;7.10;3.75;;;21.00;99.90;;;;;;4855880;29;20048;-82
2022/06/04 14:12:29;;;;;;;5.15;3.42;;;21.00;99.90;;;;;;4852332;29;20046;-80
2022/06/04 14:15:06;;;;;;;5.85;3.45;;;20.90;99.90;;;;;;4839275;29;20067;-80
2022/06/04 14:18:09;;;;;;;5.10;3.22;;;21.00;99.90;;;;;;4872129;29;20045;-80
2022/06/04 14:21:03;;;;;;;4.15;3.25;;;21.10;99.90;;;;;;4846107;29;20585;-81
2022/06/04 14:23:36;;;;;;;4.50;3.63;;;21.20;99.90;;;;;;4855005;29;20430;-81
2022/06/04 14:26:26;;;;;;;4.88;3.78;;;21.40;99.90;;;;;;4848979;29;20136;-83
2022/06/04 14:28:54;;;;;;;4.63;3.92;;;21.50;99.90;;;;;;4886122;29;20120;-82
2022/06/04 14:31:34;;;;;;;6.90;3.78;;;21.50;99.90;;;;;;4866622;29;20451;-82
2022/06/04 14:34:01;;;;;;;4.55;3.40;;;21.30;99.90;;;;;;4844073;29;20052;-82
2022/06/04 14:36:27;;;;;;;5.50;3.53;;;21.30;99.90;;;;;;4846357;29;20408;-82
2022/06/04 14:38:54;;;;;;;5.00;3.33;;;21.00;99.90;;;;;;4846024;29;20055;-83
2022/06/04 14:41:19;;;;;;;3.97;3.30;;;21.00;99.90;;;;;;4855068;29;20059;-81
2022/06/04 14:43:52;;;;;;;6.05;3.65;;;21.00;99.90;;;;;;4845615;29;20045;-83
2022/06/04 14:46:36;;;;;;;5.07;3.47;;;21.00;99.90;;;;;;4845399;29;20483;-83
2022/06/04 14:49:27;;;;;;;6.53;4.15;;;21.00;99.90;;;;;;4853499;29;20684;-82
2022/06/04 14:52:08;;;;;;;6.95;4.47;;;20.90;99.90;;;;;;4862249;29;20184;-83
2022/06/04 14:54:36;;;;;;;7.70;4.03;;;21.00;99.90;;;;;;4848662;29;20057;-83
2022/06/04 14:57:27;;;;;;;5.78;4.40;;;21.00;99.90;;;;;;4864895;29;20506;-81
2022/06/04 15:00:27;;;;;;;5.90;4.18;;;21.00;99.90;;;;;;4866103;29;20049;-82
2022/06/04 15:03:07;;;;;;;6.07;4.22;;;21.00;99.90;;;;;;4872125;29;20040;-83
2022/06/04 15:05:56;;;;;;;5.68;4.20;;;20.90;99.90;;;;;;4858721;29;20044;-82
2022/06/04 15:08:58;;;;;;;6.68;4.43;;;20.90;99.90;;;;;;4855851;29;20045;-82
2022/06/04 15:11:51;;;;;;;6.55;3.75;;;21.00;99.90;;;;;;4864034;29;20475;-83
2022/06/04 15:14:48;;;;;;;7.38;4.90;;;20.80;99.90;;;;;;4846905;29;20452;-83
2022/06/04 15:17:14;;;;;;;6.22;3.95;;;20.70;99.90;;;;;;4865154;29;20053;-83
2022/06/04 15:20:09;;;;;;;6.95;4.22;;;20.60;99.90;;;;;;4866457;29;20159;-82
2022/06/04 15:23:00;;;;;;;6.93;4.35;;;20.50;99.90;;;;;;4830814;29;20060;-81
2022/06/04 15:26:00;;;;;;;7.15;4.30;;;20.50;99.90;;;;;;4852569;29;20067;-84
2022/06/04 15:34:47;;;;;;;5.10;4.18;;;20.40;99.90;;;;;;4858678;29;20100;-82
2022/06/04 15:37:47;;;;;;;8.85;4.78;;;20.40;99.90;;;;;;4847636;29;20052;-83
2022/06/04 15:40:19;;;;;;;5.97;4.28;;;20.50;99.90;;;;;;4861064;29;20810;-83
2022/06/04 15:43:04;;;;;;;6.43;4.30;;;20.50;99.90;;;;;;4869091;29;20052;-83
2022/06/04 15:45:33;;;;;;;6.38;4.18;;;20.50;99.90;;;;;;4837654;29;20077;-81
2022/06/04 15:48:02;;;;;;;5.55;4.40;;;20.50;99.90;;;;;;4861460;29;20136;-83
2022/06/04 15:56:22;;;;;;;6.68;4.30;;;20.40;99.90;;;;;;4863229;29;20113;-82
2022/06/04 15:58:51;;;;;;;7.53;4.47;;;20.50;99.90;;;;;;4872701;29;20052;-82
2022/06/04 16:01:22;;;;;;;6.45;4.28;;;20.50;99.90;;;;;;4866341;29;20045;-81
2022/06/04 16:03:50;;;;;;;7.32;4.47;;;20.40;99.90;;;;;;4846932;29;20383;-80
2022/06/04 16:06:16;;;;;;;9.82;4.28;;;20.30;99.90;;;;;;4880047;29;20052;-82
2022/06/04 16:09:00;;;;;;;7.75;4.22;;;20.20;99.90;;;;;;4857354;29;20052;-83
2022/06/04 16:11:32;;;;;;;6.55;4.43;;;20.20;99.90;;;;;;4849997;29;20064;-82
2022/06/04 16:14:06;;;;;;;5.20;4.47;;;20.20;99.90;;;;;;4879050;29;20048;-82
2022/06/04 16:16:48;;;;;;;6.63;4.35;;;20.20;99.90;;;;;;4862155;29;20049;-81
2022/06/04 16:19:20;;;;;;;5.47;3.90;;;20.10;99.90;;;;;;4844042;29;20045;-81
2022/06/04 16:21:55;;;;;;;5.20;4.35;;;20.00;99.90;;;;;;4874785;29;20044;-82
2022/06/04 16:24:35;;;;;;;5.70;4.20;;;19.80;99.90;;;;;;4889340;29;20033;-81
2022/06/04 16:27:03;;;;;;;10.15;4.28;;;19.80;99.90;;;;;;4870982;29;20073;-79
2022/06/04 16:29:33;;;;;;;6.30;4.47;;;19.70;99.90;;;;;;4854178;29;20048;-82
2022/06/04 16:32:07;;;;;;;7.72;4.80;;;19.60;99.90;;;;;;4882052;29;20087;-80
2022/06/04 16:35:01;;;;;;;8.95;4.28;;;19.40;99.90;;;;;;4858286;29;20119;-81
2022/06/04 16:37:31;;;;;;;7.78;4.53;;;19.50;99.90;;;;;;4862416;29;20049;-81
2022/06/04 16:39:59;;;;;;;6.82;4.57;;;19.30;99.90;;;;;;4851472;29;20097;-82
2022/06/04 16:42:48;;;;;;;10.38;5.20;;;19.30;99.90;;;;;;4842632;29;20133;-82
2022/06/04 16:45:28;;;;;;;11.15;5.00;;;19.10;99.90;;;;;;4859305;29;20051;-80
2022/06/04 16:47:57;;;;;;;8.30;5.35;;;19.10;99.90;;;;;;4841198;29;20091;-82
2022/06/04 16:50:26;;;;;;;7.85;4.63;;;19.10;99.90;;;;;;4868560;29;20041;-82
2022/06/04 16:52:52;;;;;;;6.88;5.05;;;19.00;99.90;;;;;;4880937;29;20450;-80
2022/06/04 16:55:30;;;;;;;7.47;5.20;;;19.00;99.90;;;;;;4869919;29;20123;-82
2022/06/04 16:57:57;;;;;;;8.82;4.85;;;18.90;99.90;;;;;;4847092;29;20052;-82
2022/06/04 17:01:06;;;;;;;7.32;4.50;;;18.90;99.90;;;;;;4870101;29;20051;-81
2022/06/04 17:03:47;;;;;;;7.43;5.25;;;18.70;99.90;;;;;;4777806;29;20047;-82
2022/06/04 17:06:12;;;;;;;11.67;6.67;;;18.60;99.90;;;;;;4787908;29;20475;-81
2022/06/04 17:09:13;;;;;;;7.32;5.28;;;18.40;99.90;;;;;;4840346;29;20297;-80
2022/06/04 17:12:01;;;;;;;6.72;4.70;;;18.40;99.90;;;;;;4840476;29;20132;-82
2022/06/04 17:14:42;;;;;;;8.23;4.55;;;18.20;99.90;;;;;;4845525;29;20567;-82
2022/06/04 17:17:17;;;;;;;6.70;4.47;;;18.20;99.90;;;;;;4856162;29;20534;-81
2022/06/04 17:19:57;;;;;;;6.32;4.50;;;18.20;99.90;;;;;;4872523;29;20459;-82
2022/06/04 17:22:43;;;;;;;6.97;4.68;;;18.10;99.90;;;;;;4850983;29;20052;-82
2022/06/04 17:25:39;;;;;;;7.68;4.68;;;18.00;99.90;;;;;;4854109;29;20060;-80
2022/06/04 17:28:42;;;;;;;9.48;4.95;;;18.00;99.90;;;;;;4875205;29;20044;-81
2022/06/04 17:31:21;;;;;;;9.82;4.47;;;17.90;99.90;;;;;;4860506;29;20518;-81
2022/06/04 17:34:00;;;;;;;6.18;4.90;;;17.90;99.90;;;;;;4863378;29;20060;-83
2022/06/04 17:36:44;;;;;;;9.13;4.85;;;17.90;99.90;;;;;;4858716;29;20041;-80
2022/06/04 17:39:37;;;;;;;6.15;4.72;;;17.90;99.90;;;;;;4845901;29;20439;-81
2022/06/04 17:42:04;;;;;;;5.63;4.03;;;17.80;99.90;;;;;;4861285;29;20045;-82
2022/06/04 17:44:30;;;;;;;6.88;5.25;;;17.80;99.90;;;;;;4872509;29;20055;-81
2022/06/04 17:46:56;;;;;;;7.93;4.60;;;17.70;99.90;;;;;;4843844;29;20034;-80
2022/06/04 17:49:22;;;;;;;10.40;5.30;;;17.60;99.90;;;;;;4845474;29;20044;-81
2022/06/04 17:51:50;;;;;;;10.93;5.60;;;17.60;99.90;;;;;;4837836;29;20487;-78
2022/06/04 17:54:17;;;;;;;7.93;5.35;;;17.50;99.90;;;;;;4875349;29;20049;-80
2022/06/04 17:56:43;;;;;;;8.85;6.00;;;17.40;99.90;;;;;;4866579;29;20120;-80
2022/06/04 17:59:09;;;;;;;7.60;5.85;;;17.30;99.90;;;;;;4868983;29;20052;-81
2022/06/04 18:01:35;;;;;;;10.85;5.57;;;17.30;99.90;;;;;;4836193;29;20050;-80
2022/06/04 18:04:01;;;;;;;8.60;5.20;;;17.20;99.90;;;;;;4852688;29;20033;-82
2022/06/04 18:06:27;;;;;;;10.80;5.38;;;17.20;99.90;;;;;;4871380;29;20080;-81
2022/06/04 18:08:53;;;;;;;9.10;5.65;;;17.40;99.90;;;;;;4858085;29;20061;-82
2022/06/04 18:11:19;;;;;;;11.02;5.20;;;17.40;99.90;;;;;;4846756;29;20040;-81
2022/06/04 18:13:44;;;;;;;6.55;5.47;;;17.20;99.90;;;;;;4841168;29;20049;-82
2022/06/04 18:16:10;;;;;;;11.38;5.85;;;17.10;99.90;;;;;;4860240;29;20135;-80
2022/06/04 18:18:37;;;;;;;9.05;5.22;;;17.00;99.90;;;;;;4849998;29;20131;-82
2022/06/04 18:21:08;;;;;;;8.32;5.22;;;16.90;99.90;;;;;;4862684;29;20529;-80
2022/06/04 18:23:35;;;;;;;8.93;5.90;;;16.80;99.90;;;;;;4877479;29;20044;-81
2022/06/04 18:26:05;;;;;;;9.60;5.65;;;16.80;99.90;;;;;;4839686;29;20128;-79
2022/06/04 18:28:33;;;;;;;7.43;5.47;;;16.60;99.90;;;;;;4861120;29;20037;-80
2022/06/04 18:30:58;;;;;;;9.63;5.50;;;16.50;99.90;;;;;;4873235;29;20041;-80
2022/06/04 18:33:25;;;;;;;8.43;5.57;;;16.40;99.90;;;;;;4864387;29;20537;-80
2022/06/04 18:35:59;;;;;;;8.93;5.93;;;16.30;99.90;;;;;;4849941;29;20044;-81
2022/06/04 18:38:24;;;;;;;13.20;6.50;;;16.20;99.90;;;;;;4856192;29;20045;-80
2022/06/04 18:40:50;;;;;;;9.40;5.72;;;16.10;99.90;;;;;;4882206;29;20048;-79
2022/06/04 18:54:25;;;;;;;10.20;6.32;;;15.70;99.90;;;;;;4863776;29;20056;-80
2022/06/04 18:56:54;;;;;;;9.23;6.35;;;15.70;99.90;;;;;;4833486;29;20038;-80
2022/06/04 18:59:22;;;;;;;10.45;6.00;;;15.60;99.90;;;;;;4860244;29;20045;-80
2022/06/04 19:01:48;;;;;;;11.02;6.35;;;15.60;99.90;;;;;;4880226;29;20102;-79
2022/06/04 19:04:18;;;;;;;8.88;6.65;;;15.50;99.90;;;;;;4864020;29;20053;-79
2022/06/04 19:06:45;;;;;;;11.60;6.18;;;15.50;99.90;;;;;;4874604;29;20045;-79
2022/06/04 19:09:12;;;;;;;12.15;6.85;;;15.40;99.90;;;;;;4838905;29;20041;-82
2022/06/04 19:14:24;;;;;;;10.73;6.38;;;15.20;99.90;;;;;;4850905;29;20055;-79
2022/06/04 19:16:50;;;;;;;8.43;6.65;;;15.20;99.90;;;;;;4866351;29;20056;-80
2022/06/04 19:19:18;;;;;;;9.32;6.30;;;15.20;99.90;;;;;;4860063;29;20049;-79
2022/06/04 19:24:41;;;;;;;10.60;7.10;;;15.10;99.90;;;;;;4869785;29;20045;-79